Time;durP1;ratioP1;P1;durP2;ratioP2;P2;SDS_P1;SDS_P2;PMS_P1;PMS_P2;Temp;Humidity;BMP_temperature;BMP_pressure;BME280_temperature;BME280_humidity;BME280_pressure;Samples;Min_cycle;Max_cycle;Signal;HPM_P1;HPM_P2
2023/05/13 00:00:44;;;;;;;13.00;8.52;;;13.00;99.90;;;;;;5024269;28;20040;-67
2023/05/13 00:03:10;;;;;;;10.40;7.95;;;12.90;99.90;;;;;;5019351;28;20706;-67
2023/05/13 00:05:36;;;;;;;11.35;8.23;;;12.90;99.90;;;;;;5012300;28;20038;-67
2023/05/13 00:08:05;;;;;;;11.68;8.38;;;12.90;99.90;;;;;;5026315;28;20480;-67
2023/05/13 00:10:34;;;;;;;11.68;8.35;;;12.90;99.90;;;;;;5032406;28;20087;-67
2023/05/13 00:13:00;;;;;;;12.05;8.88;;;12.80;99.90;;;;;;5022487;28;20046;-67
2023/05/13 00:15:26;;;;;;;11.68;8.80;;;12.80;99.90;;;;;;5012769;28;20534;-67
2023/05/13 00:17:52;;;;;;;12.82;8.40;;;12.80;99.90;;;;;;5024601;28;20080;-67
2023/05/13 00:20:17;;;;;;;11.82;8.80;;;12.70;99.90;;;;;;5032267;28;20068;-67
2023/05/13 00:22:43;;;;;;;11.93;8.35;;;12.70;99.90;;;;;;5032538;28;20040;-67
2023/05/13 00:25:09;;;;;;;11.63;8.48;;;12.70;99.90;;;;;;5026039;28;20039;-67
2023/05/13 00:27:34;;;;;;;11.52;8.77;;;12.70;99.90;;;;;;5016764;28;20033;-67
2023/05/13 00:30:00;;;;;;;12.27;8.77;;;12.60;99.90;;;;;;5021224;28;20060;-67
2023/05/13 00:32:26;;;;;;;14.10;9.35;;;12.60;99.90;;;;;;5031792;28;20115;-66
2023/05/13 00:34:52;;;;;;;9.93;8.68;;;12.60;99.90;;;;;;5032073;28;20487;-67
2023/05/13 00:37:17;;;;;;;13.80;9.40;;;12.50;99.90;;;;;;5022797;28;20102;-67
2023/05/13 00:39:43;;;;;;;14.30;9.35;;;12.50;99.90;;;;;;5020258;28;20399;-67
2023/05/13 00:42:12;;;;;;;11.07;8.90;;;12.50;99.90;;;;;;5015142;28;20372;-67
2023/05/13 00:44:38;;;;;;;11.57;8.88;;;12.40;99.90;;;;;;5023409;28;20049;-67
2023/05/13 00:47:07;;;;;;;12.05;8.68;;;12.40;99.90;;;;;;5022512;28;20403;-67
2023/05/13 00:49:33;;;;;;;16.67;9.73;;;12.40;99.90;;;;;;5021568;28;20049;-67
2023/05/13 00:51:59;;;;;;;11.82;8.60;;;12.40;99.90;;;;;;5016841;28;20045;-67
2023/05/13 00:54:25;;;;;;;15.35;8.95;;;12.40;99.90;;;;;;5021832;28;20052;-67
2023/05/13 00:56:55;;;;;;;11.55;9.20;;;12.40;99.90;;;;;;5020773;28;20045;-67
2023/05/13 00:59:23;;;;;;;10.25;8.85;;;12.40;99.90;;;;;;5023083;28;20408;-67
2023/05/13 01:02:20;;;;;;;11.82;9.02;;;12.40;99.90;;;;;;5021962;28;20045;-66
2023/05/13 01:05:02;;;;;;;14.75;9.60;;;12.40;99.90;;;;;;5017080;28;20109;-67
2023/05/13 01:08:01;;;;;;;10.77;8.50;;;12.30;99.90;;;;;;5020324;28;20092;-67
2023/05/13 01:10:37;;;;;;;10.43;8.73;;;12.30;99.90;;;;;;5013427;28;20049;-67
2023/05/13 01:13:08;;;;;;;12.65;8.75;;;12.30;99.90;;;;;;5023466;28;20056;-67
2023/05/13 01:15:39;;;;;;;16.20;9.30;;;12.20;99.90;;;;;;5031419;28;20052;-67
2023/05/13 01:18:13;;;;;;;11.65;8.50;;;12.20;99.90;;;;;;5020812;28;20041;-67
2023/05/13 01:20:41;;;;;;;10.90;8.38;;;12.20;99.90;;;;;;5027074;28;20034;-67
2023/05/13 01:23:07;;;;;;;11.25;9.52;;;12.10;99.90;;;;;;5019918;28;20492;-67
2023/05/13 01:25:34;;;;;;;10.70;9.13;;;12.10;99.90;;;;;;5025899;28;20088;-67
2023/05/13 01:28:00;;;;;;;11.73;9.32;;;12.10;99.90;;;;;;5022879;28;20419;-67
2023/05/13 01:30:25;;;;;;;11.55;9.27;;;12.00;99.90;;;;;;5029608;28;20045;-67
2023/05/13 01:32:52;;;;;;;13.98;9.38;;;12.00;99.90;;;;;;5019455;28;20381;-67
2023/05/13 01:35:19;;;;;;;14.13;9.93;;;12.00;99.90;;;;;;5028046;28;20060;-67
2023/05/13 01:37:46;;;;;;;12.25;9.82;;;12.00;99.90;;;;;;5024882;28;20049;-67
2023/05/13 01:40:12;;;;;;;10.90;9.48;;;12.00;99.90;;;;;;5020105;28;20034;-67
2023/05/13 01:42:38;;;;;;;10.25;8.98;;;12.00;99.90;;;;;;5017195;28;20069;-67
2023/05/13 01:45:05;;;;;;;13.07;9.32;;;12.00;99.90;;;;;;5023448;28;20119;-67
2023/05/13 01:47:31;;;;;;;13.57;9.50;;;12.00;99.90;;;;;;5029381;28;20037;-67
2023/05/13 01:49:56;;;;;;;11.00;8.90;;;12.00;99.90;;;;;;5011242;28;20045;-66
2023/05/13 01:52:22;;;;;;;12.10;9.60;;;12.00;99.90;;;;;;5025349;28;20507;-67
2023/05/13 01:54:48;;;;;;;13.63;9.52;;;11.90;99.90;;;;;;5041391;22;20045;-62
2023/05/13 01:57:13;;;;;;;11.00;8.75;;;12.00;99.90;;;;;;5051494;28;20048;-62
2023/05/13 01:59:39;;;;;;;14.30;9.05;;;12.00;99.90;;;;;;5050266;28;20029;-61
2023/05/13 02:02:05;;;;;;;12.40;9.05;;;12.00;99.90;;;;;;5052022;28;20445;-61
2023/05/13 02:04:30;;;;;;;10.07;9.00;;;12.00;99.90;;;;;;5054444;28;20041;-62
2023/05/13 02:06:56;;;;;;;10.25;8.80;;;11.90;99.90;;;;;;5032678;28;20040;-62
2023/05/13 02:09:21;;;;;;;12.98;9.10;;;11.90;99.90;;;;;;5054980;28;20041;-61
2023/05/13 02:11:47;;;;;;;13.05;9.05;;;11.90;99.90;;;;;;5065289;28;20071;-61
2023/05/13 02:14:13;;;;;;;12.88;8.43;;;11.90;99.90;;;;;;5064339;28;20119;-61
2023/05/13 02:16:38;;;;;;;13.80;8.60;;;11.80;99.90;;;;;;5060424;28;20033;-61
2023/05/13 02:19:04;;;;;;;11.00;8.63;;;11.80;99.90;;;;;;5054426;28;20048;-62
2023/05/13 02:21:30;;;;;;;12.35;8.70;;;11.70;99.90;;;;;;5056093;28;20033;-62
2023/05/13 02:23:56;;;;;;;14.90;9.18;;;11.70;99.90;;;;;;5065331;28;20119;-62
2023/05/13 02:26:21;;;;;;;14.38;9.95;;;11.70;99.90;;;;;;5063624;28;20040;-62
2023/05/13 02:28:47;;;;;;;10.93;9.38;;;11.70;99.90;;;;;;5053098;28;20120;-61
2023/05/13 02:31:13;;;;;;;10.82;9.73;;;11.70;99.90;;;;;;5066594;28;20036;-62
2023/05/13 02:33:38;;;;;;;12.27;9.55;;;11.70;99.90;;;;;;5059516;28;20037;-61
2023/05/13 02:36:04;;;;;;;14.93;10.02;;;11.70;99.90;;;;;;5058194;28;20033;-61
2023/05/13 02:38:30;;;;;;;12.85;9.63;;;11.70;99.90;;;;;;5052410;28;20033;-61
2023/05/13 02:40:55;;;;;;;13.20;9.55;;;11.70;99.90;;;;;;5051215;28;20098;-62
2023/05/13 02:43:22;;;;;;;13.50;10.50;;;11.70;99.90;;;;;;5060034;28;20521;-62
2023/05/13 02:45:48;;;;;;;13.98;10.20;;;11.70;99.90;;;;;;5058268;28;20434;-62
2023/05/13 02:48:13;;;;;;;11.68;10.13;;;11.70;99.90;;;;;;5054001;28;20037;-61
2023/05/13 02:50:39;;;;;;;13.60;10.15;;;11.70;99.90;;;;;;5053636;28;20656;-62
2023/05/13 02:53:05;;;;;;;14.48;10.32;;;11.70;99.90;;;;;;5062145;28;20067;-62
2023/05/13 02:55:31;;;;;;;11.02;9.77;;;11.60;99.90;;;;;;5029068;28;20411;-62
2023/05/13 02:57:57;;;;;;;14.80;10.88;;;11.50;99.90;;;;;;5036079;28;20033;-62
2023/05/13 03:00:22;;;;;;;11.65;10.15;;;11.60;99.90;;;;;;5053391;28;20045;-61
2023/05/13 03:02:48;;;;;;;12.15;10.15;;;11.50;99.90;;;;;;5061964;28;20094;-62
2023/05/13 03:05:14;;;;;;;13.23;10.90;;;11.40;99.90;;;;;;5063355;28;20406;-61
2023/05/13 03:07:39;;;;;;;14.30;11.23;;;11.50;99.90;;;;;;5043468;28;20041;-62
2023/05/13 03:10:06;;;;;;;12.95;10.30;;;11.30;99.90;;;;;;5059582;28;20036;-62
2023/05/13 03:12:31;;;;;;;13.10;10.65;;;11.30;99.90;;;;;;5045045;28;20056;-61
2023/05/13 03:14:57;;;;;;;13.82;10.85;;;11.30;99.90;;;;;;5042786;28;20178;-62
2023/05/13 03:17:24;;;;;;;13.57;10.60;;;11.30;99.90;;;;;;5044225;28;20051;-61
2023/05/13 03:19:50;;;;;;;13.10;10.30;;;11.20;99.90;;;;;;5060492;28;20040;-62
2023/05/13 03:22:15;;;;;;;14.73;11.25;;;11.20;99.90;;;;;;5040511;28;20110;-61
2023/05/13 03:24:42;;;;;;;16.45;11.45;;;11.20;99.90;;;;;;5054743;28;20050;-62
2023/05/13 03:27:07;;;;;;;16.13;10.93;;;11.20;99.90;;;;;;5050233;28;20163;-61
2023/05/13 03:29:33;;;;;;;14.88;11.52;;;11.10;99.90;;;;;;5051101;28;20037;-61
2023/05/13 03:31:58;;;;;;;15.52;10.95;;;11.10;99.90;;;;;;5064737;28;20667;-61
2023/05/13 03:34:24;;;;;;;14.85;10.73;;;11.00;99.90;;;;;;5073504;28;20505;-61
2023/05/13 03:36:50;;;;;;;14.13;11.27;;;11.00;99.90;;;;;;5053967;28;20041;-61
2023/05/13 03:39:15;;;;;;;14.90;11.52;;;11.00;99.90;;;;;;5060386;28;20040;-61
2023/05/13 03:41:41;;;;;;;13.18;10.90;;;11.00;99.90;;;;;;5047269;28;20040;-61
2023/05/13 03:44:07;;;;;;;14.25;11.07;;;10.90;99.90;;;;;;5073084;28;20039;-61
2023/05/13 03:46:32;;;;;;;13.32;11.25;;;10.90;99.90;;;;;;5031279;28;20068;-62
2023/05/13 03:48:58;;;;;;;17.88;11.43;;;10.90;99.90;;;;;;5057159;28;20093;-61
2023/05/13 03:51:24;;;;;;;14.50;11.40;;;10.80;99.90;;;;;;5064666;28;20040;-61
2023/05/13 03:53:49;;;;;;;17.00;11.45;;;10.80;99.90;;;;;;5042302;28;20043;-61
2023/05/13 03:56:15;;;;;;;15.05;11.45;;;10.80;99.90;;;;;;5054724;28;20037;-61
2023/05/13 03:58:41;;;;;;;15.48;12.35;;;10.80;99.90;;;;;;5034173;28;20056;-61
2023/05/13 04:01:07;;;;;;;15.20;11.57;;;10.80;99.90;;;;;;5049149;28;20036;-61
2023/05/13 04:03:33;;;;;;;14.38;11.90;;;10.80;99.90;;;;;;5050100;28;20123;-61
2023/05/13 04:05:59;;;;;;;14.85;12.00;;;10.80;99.90;;;;;;5037012;28;20368;-61
2023/05/13 04:08:25;;;;;;;18.13;12.73;;;10.70;99.90;;;;;;5054702;28;20132;-61
2023/05/13 04:10:51;;;;;;;14.93;11.60;;;10.70;99.90;;;;;;5056307;28;20051;-61
2023/05/13 04:13:16;;;;;;;16.65;11.98;;;10.70;99.90;;;;;;5062972;28;20036;-61
2023/05/13 04:15:42;;;;;;;14.15;12.20;;;10.90;99.90;;;;;;5052299;28;20516;-61
2023/05/13 04:18:08;;;;;;;16.90;12.90;;;10.80;99.90;;;;;;5051654;28;20051;-61
2023/05/13 04:20:33;;;;;;;14.30;12.43;;;10.80;99.90;;;;;;5049463;28;20048;-61
2023/05/13 04:23:00;;;;;;;15.40;12.60;;;10.80;99.90;;;;;;5057444;28;20064;-61
2023/05/13 04:25:26;;;;;;;16.08;11.98;;;10.80;99.90;;;;;;5010881;28;20040;-61
2023/05/13 04:27:51;;;;;;;16.73;12.65;;;10.80;99.90;;;;;;5034356;28;20410;-61
2023/05/13 04:30:17;;;;;;;19.00;13.35;;;10.80;99.90;;;;;;5051505;28;20533;-61
2023/05/13 04:32:42;;;;;;;17.17;13.43;;;10.80;99.90;;;;;;5052728;28;20116;-61
2023/05/13 04:35:08;;;;;;;15.05;12.70;;;10.80;99.90;;;;;;5054470;28;20048;-61
2023/05/13 04:37:34;;;;;;;17.38;13.15;;;10.80;99.90;;;;;;5029367;28;20040;-61
2023/05/13 04:40:00;;;;;;;16.10;13.30;;;10.90;99.90;;;;;;5052077;28;20037;-61
2023/05/13 04:42:25;;;;;;;20.92;13.75;;;10.90;99.90;;;;;;5040826;28;20036;-61
2023/05/13 04:44:51;;;;;;;19.40;13.73;;;10.90;99.90;;;;;;5052832;28;20433;-62
2023/05/13 04:47:17;;;;;;;20.10;14.18;;;10.90;99.90;;;;;;5051393;28;20037;-61
2023/05/13 04:49:43;;;;;;;18.38;14.35;;;10.90;99.90;;;;;;5027607;28;20044;-61
2023/05/13 04:52:11;;;;;;;22.20;15.18;;;11.00;99.90;;;;;;5028400;28;20094;-61
2023/05/13 04:54:38;;;;;;;19.45;15.15;;;11.00;99.90;;;;;;5043056;28;20064;-61
2023/05/13 04:57:04;;;;;;;18.85;15.75;;;11.00;99.90;;;;;;5038767;28;20037;-61
2023/05/13 04:59:30;;;;;;;22.98;15.82;;;11.00;99.90;;;;;;5043670;28;20040;-60
2023/05/13 05:01:55;;;;;;;22.98;16.23;;;11.10;99.90;;;;;;5030184;28;20032;-61
2023/05/13 05:04:21;;;;;;;23.92;16.73;;;11.10;99.90;;;;;;5047140;28;20040;-61
2023/05/13 05:06:47;;;;;;;22.35;17.20;;;11.20;99.90;;;;;;5065384;28;20055;-61
2023/05/13 05:09:13;;;;;;;22.10;17.92;;;11.20;99.90;;;;;;5059735;28;20513;-61
2023/05/13 05:11:38;;;;;;;25.30;17.23;;;11.30;99.90;;;;;;5039631;28;20120;-61
2023/05/13 05:14:04;;;;;;;24.52;18.10;;;11.40;99.90;;;;;;5027948;28;20072;-61
2023/05/13 05:16:29;;;;;;;25.63;18.20;;;11.40;99.90;;;;;;5046530;28;20037;-61
2023/05/13 05:18:55;;;;;;;25.88;18.67;;;11.50;99.90;;;;;;5047676;28;20033;-61
2023/05/13 05:21:20;;;;;;;25.85;18.27;;;11.60;99.90;;;;;;5041426;28;20293;-61
2023/05/13 05:23:46;;;;;;;23.10;17.95;;;11.60;99.90;;;;;;5042571;28;21964;-61
2023/05/13 05:26:12;;;;;;;26.15;19.02;;;11.60;99.90;;;;;;5046884;28;20044;-60
2023/05/13 05:28:38;;;;;;;24.52;17.65;;;11.60;99.90;;;;;;5043513;28;20090;-61
2023/05/13 05:31:05;;;;;;;28.27;19.98;;;11.60;99.90;;;;;;5043281;28;20032;-61
2023/05/13 05:33:31;;;;;;;27.23;18.90;;;11.60;99.90;;;;;;5041334;28;20583;-61
2023/05/13 05:35:56;;;;;;;27.15;19.60;;;11.60;99.90;;;;;;5024945;28;20553;-61
2023/05/13 05:38:25;;;;;;;23.63;18.77;;;11.60;99.90;;;;;;5033121;28;20040;-61
2023/05/13 05:40:50;;;;;;;26.35;18.83;;;11.60;99.90;;;;;;5042795;28;20491;-61
2023/05/13 05:43:16;;;;;;;27.42;18.50;;;11.70;99.90;;;;;;5044164;28;20040;-61
2023/05/13 05:45:42;;;;;;;25.15;18.55;;;11.70;99.90;;;;;;5041252;28;20052;-60
2023/05/13 05:48:07;;;;;;;25.05;18.52;;;11.80;99.90;;;;;;5043456;28;20405;-60
2023/05/13 05:50:34;;;;;;;22.92;18.17;;;11.90;99.90;;;;;;5048763;28;20039;-60
2023/05/13 05:53:00;;;;;;;28.45;18.85;;;11.90;99.90;;;;;;5054577;28;20033;-61
2023/05/13 05:55:27;;;;;;;26.05;18.17;;;11.90;99.90;;;;;;5065210;28;20406;-61
2023/05/13 05:57:56;;;;;;;23.85;17.77;;;12.00;99.90;;;;;;5052724;28;20565;-61
2023/05/13 06:00:22;;;;;;;23.27;16.95;;;12.00;99.90;;;;;;5050900;28;20049;-61
2023/05/13 06:02:48;;;;;;;22.27;17.30;;;12.10;99.90;;;;;;5035816;28;20041;-61
2023/05/13 06:05:14;;;;;;;25.02;17.42;;;12.20;99.90;;;;;;5028039;28;20043;-61
2023/05/13 06:07:40;;;;;;;24.02;18.95;;;12.40;99.90;;;;;;5044362;28;20083;-61
2023/05/13 06:10:06;;;;;;;21.67;16.63;;;12.50;99.90;;;;;;5048979;28;20041;-61
2023/05/13 06:12:32;;;;;;;22.00;16.63;;;12.70;99.90;;;;;;5058980;28;20040;-61
2023/05/13 06:14:58;;;;;;;24.05;17.50;;;12.90;99.90;;;;;;5051265;28;20044;-61
2023/05/13 06:17:24;;;;;;;22.38;15.38;;;13.10;99.90;;;;;;5032961;28;20514;-61
2023/05/13 06:19:49;;;;;;;21.45;14.88;;;13.10;99.90;;;;;;5059951;28;20045;-61
2023/05/13 06:22:15;;;;;;;20.58;13.95;;;13.30;99.90;;;;;;5027602;28;20116;-61
2023/05/13 06:24:43;;;;;;;18.65;14.27;;;13.30;99.90;;;;;;5013343;28;20132;-61
2023/05/13 06:27:10;;;;;;;20.60;15.38;;;13.40;99.90;;;;;;5042703;28;20029;-61
2023/05/13 06:29:36;;;;;;;21.88;14.90;;;13.40;99.90;;;;;;5038145;28;20068;-61
2023/05/13 06:32:02;;;;;;;16.00;13.75;;;13.50;99.90;;;;;;5039551;28;20540;-61
2023/05/13 06:34:28;;;;;;;18.88;14.60;;;13.60;99.90;;;;;;5052000;28;20039;-61
2023/05/13 06:36:53;;;;;;;17.60;12.88;;;13.70;99.90;;;;;;5044715;28;20040;-61
2023/05/13 06:39:19;;;;;;;18.00;14.50;;;13.80;99.90;;;;;;5037387;28;20043;-61
2023/05/13 06:41:44;;;;;;;19.95;14.75;;;13.80;99.90;;;;;;5028370;28;20637;-61
2023/05/13 06:44:10;;;;;;;19.80;14.65;;;13.80;99.90;;;;;;5027215;28;20029;-61
2023/05/13 06:46:36;;;;;;;18.23;14.30;;;13.80;99.90;;;;;;5036237;28;20029;-61
2023/05/13 06:49:01;;;;;;;22.60;14.82;;;13.90;99.90;;;;;;5031053;28;20041;-61
2023/05/13 06:51:27;;;;;;;18.55;14.75;;;14.00;99.90;;;;;;5049857;28;20038;-61
2023/05/13 06:53:54;;;;;;;18.40;14.73;;;14.10;99.90;;;;;;5048701;28;20064;-61
2023/05/13 06:56:21;;;;;;;19.88;14.07;;;14.20;99.90;;;;;;5047997;28;20044;-61
2023/05/13 06:58:48;;;;;;;19.83;13.45;;;14.30;99.90;;;;;;5050095;28;20044;-61
2023/05/13 07:01:15;;;;;;;19.60;14.90;;;14.40;99.90;;;;;;5035184;28;20056;-61
2023/05/13 07:03:40;;;;;;;16.52;12.65;;;14.50;99.90;;;;;;5042851;28;20041;-61
2023/05/13 07:06:06;;;;;;;15.93;13.43;;;14.50;99.90;;;;;;5051310;28;20025;-61
2023/05/13 07:08:31;;;;;;;19.65;13.98;;;14.60;99.90;;;;;;5043237;28;20037;-61
2023/05/13 07:10:57;;;;;;;18.13;14.27;;;14.70;99.90;;;;;;5049150;28;20555;-61
2023/05/13 07:13:23;;;;;;;17.80;13.18;;;14.80;99.90;;;;;;5044910;28;20037;-61
2023/05/13 07:15:49;;;;;;;18.77;13.60;;;14.80;99.90;;;;;;5051611;28;20064;-61
2023/05/13 07:18:15;;;;;;;23.20;13.57;;;15.10;99.90;;;;;;5049272;28;20491;-61
2023/05/13 07:20:40;;;;;;;20.77;14.45;;;15.10;99.90;;;;;;5034762;28;20120;-61
2023/05/13 07:23:06;;;;;;;19.52;13.95;;;15.10;99.90;;;;;;5048312;28;20040;-61
2023/05/13 07:25:31;;;;;;;15.93;12.65;;;15.20;99.90;;;;;;5046690;28;20491;-61
2023/05/13 07:27:57;;;;;;;21.02;13.95;;;15.30;99.90;;;;;;5050802;28;20037;-61
2023/05/13 07:30:23;;;;;;;18.17;12.73;;;15.40;99.90;;;;;;5031280;28;20116;-61
2023/05/13 07:32:48;;;;;;;17.20;12.30;;;15.50;99.90;;;;;;5049369;28;20059;-60
2023/05/13 07:35:15;;;;;;;15.30;12.35;;;15.60;99.90;;;;;;5043609;28;20084;-61
2023/05/13 07:37:41;;;;;;;15.85;12.10;;;15.60;99.90;;;;;;5041958;28;20564;-61
2023/05/13 07:40:07;;;;;;;16.00;12.52;;;15.80;99.90;;;;;;5049609;28;20037;-61
2023/05/13 07:42:33;;;;;;;15.40;12.75;;;15.90;99.90;;;;;;5048725;28;20036;-61
2023/05/13 07:44:59;;;;;;;15.02;11.32;;;16.00;99.90;;;;;;5049618;28;20033;-61
2023/05/13 07:47:26;;;;;;;14.75;11.27;;;16.10;99.90;;;;;;5024489;28;20037;-61
2023/05/13 07:49:52;;;;;;;15.70;11.98;;;16.10;99.90;;;;;;5051104;28;20049;-61
2023/05/13 07:52:17;;;;;;;13.00;11.50;;;16.20;99.90;;;;;;5051348;28;20083;-61
2023/05/13 07:54:43;;;;;;;13.07;11.52;;;16.30;99.90;;;;;;5064011;22;20338;-66
2023/05/13 07:57:09;;;;;;;16.42;10.80;;;16.40;99.90;;;;;;5067649;28;20036;-66
2023/05/13 07:59:34;;;;;;;15.70;11.15;;;16.60;99.90;;;;;;5068046;28;20079;-66
2023/05/13 08:02:00;;;;;;;15.63;10.95;;;16.80;99.90;;;;;;5069940;28;20481;-66
2023/05/13 08:04:25;;;;;;;12.38;10.00;;;16.80;99.90;;;;;;5070789;28;20040;-66
2023/05/13 08:06:51;;;;;;;15.65;10.68;;;17.00;99.90;;;;;;5068266;28;20059;-66
2023/05/13 08:09:17;;;;;;;15.75;11.23;;;17.10;99.90;;;;;;5066878;28;20482;-66
2023/05/13 08:11:43;;;;;;;14.18;10.00;;;17.20;99.90;;;;;;5069185;28;20470;-66
2023/05/13 08:14:08;;;;;;;14.05;10.35;;;17.30;99.90;;;;;;5068305;28;20131;-66
2023/05/13 08:16:37;;;;;;;12.73;10.48;;;17.50;99.90;;;;;;5069278;28;20031;-65
2023/05/13 08:19:03;;;;;;;12.63;9.38;;;17.60;99.90;;;;;;5071819;28;20032;-66
2023/05/13 08:21:29;;;;;;;11.70;9.18;;;17.70;99.90;;;;;;5064923;28;20482;-66
2023/05/13 08:23:55;;;;;;;13.70;10.00;;;17.60;99.90;;;;;;5069290;28;20036;-66
2023/05/13 08:26:21;;;;;;;15.82;10.13;;;17.70;99.90;;;;;;5072352;28;20043;-66
2023/05/13 08:28:47;;;;;;;10.75;8.90;;;17.80;99.90;;;;;;5072807;28;20390;-66
2023/05/13 08:31:13;;;;;;;12.10;10.02;;;17.90;99.90;;;;;;5071652;28;20050;-66
2023/05/13 08:33:40;;;;;;;12.82;9.40;;;18.00;99.90;;;;;;5070607;28;20055;-67
2023/05/13 08:36:06;;;;;;;9.70;8.45;;;18.10;99.90;;;;;;5071900;28;20040;-66
2023/05/13 08:38:32;;;;;;;13.07;9.65;;;18.20;99.90;;;;;;5072001;28;20044;-66
2023/05/13 08:40:58;;;;;;;14.57;9.50;;;18.30;99.90;;;;;;5070686;28;20048;-66
2023/05/13 08:43:27;;;;;;;13.82;9.07;;;18.50;99.90;;;;;;5071474;28;20140;-66
2023/05/13 08:45:55;;;;;;;10.60;8.60;;;18.50;99.90;;;;;;5072028;28;20068;-66
2023/05/13 08:48:21;;;;;;;12.45;8.70;;;18.70;99.90;;;;;;5071247;28;20433;-66
2023/05/13 08:50:48;;;;;;;14.15;8.32;;;18.80;99.90;;;;;;5071700;28;20468;-66
2023/05/13 08:53:17;;;;;;;10.48;9.40;;;18.80;99.90;;;;;;5070229;28;20135;-67
2023/05/13 08:55:42;;;;;;;12.07;8.90;;;18.90;99.90;;;;;;5051374;28;20091;-66
2023/05/13 08:58:08;;;;;;;11.95;8.63;;;18.90;99.90;;;;;;5051524;28;20041;-66
2023/05/13 09:00:34;;;;;;;13.07;8.43;;;19.00;99.90;;;;;;5051893;28;20041;-66
2023/05/13 09:03:00;;;;;;;10.85;9.05;;;19.00;99.90;;;;;;5068480;28;20199;-66
2023/05/13 09:05:26;;;;;;;12.73;9.27;;;19.10;99.90;;;;;;5071186;28;20048;-66
2023/05/13 09:07:53;;;;;;;11.50;8.25;;;19.10;99.90;;;;;;5072119;28;20398;-65
2023/05/13 09:10:19;;;;;;;11.68;8.45;;;19.10;99.90;;;;;;5071585;28;20178;-66
2023/05/13 09:12:53;;;;;;;10.43;7.57;;;19.20;99.90;;;;;;5053089;28;20402;-66
2023/05/13 09:15:21;;;;;;;10.70;6.82;;;19.30;99.90;;;;;;5069549;28;20410;-66
2023/05/13 09:17:52;;;;;;;9.35;7.20;;;19.30;99.90;;;;;;5071513;28;20048;-66
2023/05/13 09:20:19;;;;;;;13.40;7.15;;;19.40;99.90;;;;;;5071345;28;20048;-66
2023/05/13 09:22:47;;;;;;;12.07;7.47;;;19.50;99.90;;;;;;5071679;28;20039;-66
2023/05/13 09:25:13;;;;;;;8.75;5.97;;;19.60;99.90;;;;;;5071195;28;20033;-66
2023/05/13 09:27:46;;;;;;;11.07;6.90;;;19.70;99.90;;;;;;5070781;28;20041;-66
2023/05/13 09:30:11;;;;;;;9.05;5.75;;;19.80;99.90;;;;;;5070946;28;20036;-66
2023/05/13 09:32:38;;;;;;;7.50;5.70;;;19.80;99.90;;;;;;5071320;28;20043;-65
2023/05/13 09:35:15;;;;;;;8.93;6.60;;;19.90;99.90;;;;;;5070442;28;20043;-66
2023/05/13 09:37:46;;;;;;;8.23;6.75;;;19.80;99.90;;;;;;5051222;28;20124;-65
2023/05/13 09:40:13;;;;;;;8.20;6.85;;;19.90;99.90;;;;;;5054365;28;20041;-66
2023/05/13 09:42:45;;;;;;;6.63;5.88;;;20.00;99.90;;;;;;5070891;28;20032;-65
2023/05/13 09:45:13;;;;;;;8.60;6.05;;;20.10;99.90;;;;;;5071526;28;20393;-66
2023/05/13 09:47:39;;;;;;;8.85;6.30;;;20.10;99.90;;;;;;5070855;28;20478;-66
2023/05/13 09:50:06;;;;;;;9.57;5.57;;;20.10;99.90;;;;;;5071237;28;20040;-66
2023/05/13 09:52:33;;;;;;;7.25;5.90;;;20.10;99.90;;;;;;5069900;28;20041;-66
2023/05/13 09:55:00;;;;;;;11.32;6.55;;;20.20;99.90;;;;;;5070561;28;20071;-66
2023/05/13 09:57:29;;;;;;;11.43;6.28;;;20.20;99.90;;;;;;5071294;28;20033;-65
2023/05/13 09:59:59;;;;;;;8.75;6.65;;;20.20;99.90;;;;;;5071067;28;20044;-65
2023/05/13 10:02:25;;;;;;;7.63;5.87;;;20.20;99.90;;;;;;5070683;28;20072;-66
2023/05/13 10:04:53;;;;;;;8.30;5.93;;;20.30;99.90;;;;;;5073298;28;20044;-66
2023/05/13 10:07:23;;;;;;;10.23;6.80;;;20.30;99.90;;;;;;5074441;28;20076;-65
2023/05/13 10:09:53;;;;;;;11.23;6.03;;;20.40;99.90;;;;;;5074485;28;20119;-66
2023/05/13 10:12:21;;;;;;;11.63;5.72;;;20.40;99.90;;;;;;5075003;28;20033;-66
2023/05/13 10:14:50;;;;;;;12.50;6.32;;;20.50;99.90;;;;;;5074591;28;20079;-66
2023/05/13 10:17:22;;;;;;;8.27;6.55;;;20.50;99.90;;;;;;5075045;28;20105;-66
2023/05/13 10:19:52;;;;;;;8.23;5.97;;;20.60;99.90;;;;;;5074515;28;20055;-66
2023/05/13 10:22:29;;;;;;;8.95;5.38;;;20.70;99.90;;;;;;5073289;28;20044;-66
2023/05/13 10:25:00;;;;;;;10.82;5.85;;;20.80;99.90;;;;;;5067991;28;20048;-66
2023/05/13 10:27:31;;;;;;;7.60;5.18;;;20.80;99.90;;;;;;5074175;28;20391;-64
2023/05/13 10:29:58;;;;;;;9.27;6.13;;;20.80;99.90;;;;;;5074366;28;20040;-65
2023/05/13 10:32:26;;;;;;;13.77;5.10;;;20.90;99.90;;;;;;5074431;28;20037;-65
2023/05/13 10:35:14;;;;;;;6.60;4.97;;;20.90;99.90;;;;;;5074230;28;20142;-64
2023/05/13 10:38:01;;;;;;;9.88;5.53;;;20.90;96.80;;;;;;5074674;28;20122;-65
2023/05/13 10:41:01;;;;;;;8.63;5.50;;;20.80;98.80;;;;;;5072775;28;20036;-64
2023/05/13 10:43:28;;;;;;;7.57;5.35;;;21.00;97.50;;;;;;5073612;28;20501;-64
2023/05/13 10:46:02;;;;;;;9.98;5.60;;;21.10;99.50;;;;;;5073899;28;20099;-64
2023/05/13 10:48:45;;;;;;;7.40;5.10;;;21.10;99.90;;;;;;5074362;28;20044;-65
2023/05/13 10:51:15;;;;;;;8.02;5.07;;;21.20;99.90;;;;;;5074141;28;20048;-64
2023/05/13 10:53:49;;;;;;;6.38;4.70;;;21.20;98.80;;;;;;5074182;28;20045;-64
2023/05/13 10:56:18;;;;;;;8.40;5.57;;;21.30;99.50;;;;;;5072506;28;20087;-64
2023/05/13 10:59:00;;;;;;;8.15;5.45;;;21.30;98.30;;;;;;5072634;28;20048;-64
2023/05/13 11:01:42;;;;;;;6.57;5.28;;;21.40;98.30;;;;;;5074075;28;20036;-64
2023/05/13 11:04:13;;;;;;;11.10;5.50;;;21.50;96.40;;;;;;5073932;28;20071;-65
2023/05/13 11:06:40;;;;;;;8.05;5.60;;;21.70;95.50;;;;;;5073496;28;20036;-64
2023/05/13 11:09:19;;;;;;;9.27;5.20;;;21.60;94.70;;;;;;5073662;28;20494;-64
2023/05/13 11:11:52;;;;;;;6.60;5.05;;;21.50;94.10;;;;;;5073968;28;20072;-64
2023/05/13 11:14:19;;;;;;;6.95;4.95;;;21.50;94.20;;;;;;5072121;28;20040;-64
2023/05/13 11:17:09;;;;;;;8.13;5.15;;;21.50;94.40;;;;;;5064832;28;20068;-64
2023/05/13 11:19:38;;;;;;;7.78;5.38;;;21.50;96.10;;;;;;5074092;28;20040;-64
2023/05/13 11:22:06;;;;;;;6.10;4.50;;;21.70;95.80;;;;;;5073265;28;20486;-65
2023/05/13 11:24:32;;;;;;;6.45;4.53;;;21.80;94.40;;;;;;5073653;28;20433;-64
2023/05/13 11:27:11;;;;;;;9.05;4.88;;;21.90;94.50;;;;;;5071316;28;20036;-64
2023/05/13 11:29:37;;;;;;;7.95;5.13;;;22.00;91.10;;;;;;5073605;28;20044;-64
2023/05/13 11:32:05;;;;;;;6.78;4.47;;;22.00;93.40;;;;;;5073056;28;20501;-64
2023/05/13 11:34:32;;;;;;;7.47;4.50;;;22.00;90.30;;;;;;5071731;28;20119;-64
2023/05/13 11:37:04;;;;;;;10.07;4.70;;;22.00;92.60;;;;;;5073147;28;20040;-64
2023/05/13 11:39:31;;;;;;;6.10;4.90;;;22.10;87.80;;;;;;5068156;28;20383;-64
2023/05/13 11:41:56;;;;;;;7.10;4.60;;;22.30;86.60;;;;;;5072767;28;20123;-64
2023/05/13 11:44:23;;;;;;;9.38;4.72;;;22.40;84.20;;;;;;5072853;28;20072;-64
2023/05/13 11:46:56;;;;;;;10.10;5.80;;;22.40;83.20;;;;;;5073051;28;20032;-64
2023/05/13 11:49:33;;;;;;;7.82;4.88;;;22.50;90.20;;;;;;5071865;28;20044;-64
2023/05/13 11:52:03;;;;;;;6.80;4.22;;;22.60;86.10;;;;;;5072227;28;20036;-64
2023/05/13 11:54:29;;;;;;;10.25;5.00;;;22.60;82.20;;;;;;5073084;28;20036;-64
2023/05/13 11:56:54;;;;;;;7.15;4.57;;;22.70;83.40;;;;;;5054755;28;20569;-65
2023/05/13 11:59:20;;;;;;;6.75;4.53;;;22.60;79.10;;;;;;5072701;28;20510;-64
2023/05/13 12:01:56;;;;;;;10.98;4.80;;;22.50;77.60;;;;;;5072318;28;20039;-65
2023/05/13 12:04:27;;;;;;;4.55;3.90;;;22.40;78.50;;;;;;5071378;28;20041;-65
2023/05/13 12:06:53;;;;;;;;;;;22.30;76.70;;;;;;5072822;28;20055;-65
2023/05/13 12:09:21;;;;;;;7.63;4.70;;;22.20;78.60;;;;;;5073053;28;20015;-65
2023/05/13 12:11:47;;;;;;;7.60;4.63;;;22.20;80.60;;;;;;5054590;28;20047;-65
2023/05/13 12:14:13;;;;;;;7.95;4.20;;;22.10;80.70;;;;;;5072681;28;20032;-65
2023/05/13 12:16:40;;;;;;;7.25;4.18;;;22.00;75.90;;;;;;5071871;28;20041;-65
2023/05/13 12:19:06;;;;;;;6.88;4.25;;;21.90;74.10;;;;;;5072394;28;20036;-65
2023/05/13 12:21:33;;;;;;;6.65;4.60;;;21.90;75.60;;;;;;5071170;28;20032;-65
2023/05/13 12:24:00;;;;;;;6.65;3.88;;;21.80;78.10;;;;;;5071928;28;20532;-65
2023/05/13 12:26:25;;;;;;;7.25;4.40;;;21.80;75.20;;;;;;5071182;28;20124;-65
2023/05/13 12:29:00;;;;;;;6.45;4.28;;;21.70;73.60;;;;;;5072459;28;20040;-65
2023/05/13 12:31:26;;;;;;;6.80;4.45;;;21.90;73.00;;;;;;5071704;28;20425;-65
2023/05/13 12:33:52;;;;;;;6.35;4.10;;;22.00;72.60;;;;;;5070521;28;20041;-65
2023/05/13 12:36:26;;;;;;;6.28;4.22;;;22.20;73.60;;;;;;5071639;28;20102;-65